首页
METAR-TAF:

METAR-TAF

机场 :

Grider Field

Pine Bluff, 阿肯色州, 美国

纬度: 34-10-30N, 经度: 091-56-05W, 海拔: 63米

当前天气观测

该预报发布于30分钟前的13:53 UTC
风速11节,风向西北
温度 1°C
湿度 59%
气压 1024 hPa
能見度: 16.1公里
天空无云

METAR: KPBF 301353Z AUTO 32011KT 10SM CLR 01/M06 A3024 RMK AO2 SLP241 T00111061

时间: 08:23 (14:23 UTC)

预报

该预报发布于2小时和51分钟前的11:32 UTC
预报有效从30日的 12点(UTC)到 01日的 12点(UTC)
风速10节,风向西北,有时为20节阵风
能見度: 10公里
天空无云
从 30日的 1400点(UTC)
风速12节,风向西北,有时为22节阵风
能見度: 10公里
天空无云
从 01日的 0000点(UTC)
风速4节,风向西转西北
能見度: 10公里
天空无云

TAF: KPBF 301132Z 3012/0112 32010G20KT P6SM SKC FM301400 32012G22KT P6SM SKC FM010000 29004KT P6SM SKC

超过4000个机场的气象观测和天气预报(METAR&TAF报告)。

可查询的气象台以黄色和红色小点在地图上表示。

将鼠标移到小点上方,可查看气象台名称。

然后点击查看天气观测和预报。

如需切换地图:点击带黑十字的绿色按钮放大地图;点击带横线的绿色按钮缩小地图;或者点击绿色箭头查看邻近地区的地图。


METAR-TAF: